Terminal Aerodrome Forecast
Issued by NWS Cleveland, OH

Home | Current Version | Previous Version | Text Only | Print | Product List | Glossary On
Versions: 1 2 3 4 5 6 7 8 9 10 11 12 13 14 15 16 17 18 19
000
FTUS41 KCLE 200500 CCA
TAFERI
TAF COR
KERI 200544Z 2006/2106 18012G20KT P6SM BKN250
     FM201500 20015G25KT P6SM SCT040 BKN250
     FM210500 20012G22KT P6SM VCTS BKN040CB=

USA.gov is the U.S. government's official web portal to all federal, state and local government web resources and services.